Flight Track Log - Related Links

Times and Time Zones

All times are in EDT time to prevent confusion due to time zone crossing. See the SWA1570 flight status page for this flight to view local times or setup timezone preferences in your user account.

Time Position Orientation Groundspeed Altitude Reporting Facility
EDT Latitude Longitude Course Direction KTS MPH feet Rate Location/Type
Tue 12:19:57 PM 32.7494 -117.2286 320° Northwest 170 196 2,000  Level Los Angeles Center
Tue 12:20:59 PM 32.7892 -117.3006 303° West 214 246 5,500 3,435 Climbing Los Angeles Center
Tue 12:22:01 PM 32.8364 -117.3708 309° West 262 302 9,100 3,000 Climbing Los Angeles Center
Tue 12:23:03 PM 32.8906 -117.4425 312° West 282 325 11,700 3,145 Climbing Los Angeles Center
Tue 12:24:05 PM 32.9542 -117.5283 311° West 333 383 15,600 3,871 Climbing Los Angeles Center
Tue 12:25:00 PM 33.1252 -117.7418 320° Northwest  Level FlightAware Approximate
Tue 12:25:07 PM 33.0200 -117.6156 312° West 350 403 19,700  Level Los Angeles Center
Tue 12:26:08 PM 33.0864 -117.7064 311° West 360 414 22,900 3,268 Climbing Los Angeles Center
Tue 12:27:10 PM 33.1964 -117.7881 328° Northwest 393 452 26,400 2,952 Climbing Los Angeles Center
Tue 12:28:12 PM 33.2994 -117.8422 336° Northwest 401 461 29,000 2,323 Climbing Los Angeles Center
Tue 12:29:14 PM 33.4064 -117.8981 336° Northwest 417 480 31,200 2,274 Climbing Los Angeles Center
Tue 12:30:16 PM 33.5150 -117.9547 336° Northwest 425 489 33,700 2,226 Climbing Los Angeles Center
Tue 12:31:18 PM 33.6214 -118.0103 337° Northwest 420 483 35,800 2,129 Climbing Los Angeles Center
Tue 12:32:20 PM 33.7489 -118.0786 336° Northwest 422 486 38,100 1,790 Climbing Los Angeles Center
Tue 12:33:22 PM 33.8544 -118.1331 337° Northwest 421 484 39,500 919 Climbing Los Angeles Center
Tue 12:34:24 PM 33.9603 -118.1914 335° Northwest 423 487 40,000 242 Climbing Los Angeles Center
Tue 12:35:26 PM 34.0672 -118.2483 336° Northwest 425 489 40,000  Level Los Angeles Center
Tue 12:36:28 PM 34.1731 -118.3061 336° Northwest 420 483 40,000  Level Los Angeles Center
Tue 12:37:30 PM 34.3006 -118.3744 336° Northwest 419 482 40,000  Level Los Angeles Center
Tue 12:38:32 PM 34.4078 -118.4325 336° Northwest 422 486 40,000  Level Los Angeles Center
Tue 12:39:34 PM 34.5119 -118.4897 336° Northwest 417 480 40,000  Level Los Angeles Center
Tue 12:40:36 PM 34.6167 -118.5469 336° Northwest 414 476 40,000  Level Los Angeles Center
Tue 12:41:38 PM 34.7208 -118.6039 336° Northwest 412 474 40,000  Level Los Angeles Center
Tue 12:42:40 PM 34.8256 -118.6611 336° Northwest 412 474 40,000  Level Los Angeles Center
Tue 12:43:42 PM 34.9522 -118.7289 336° Northwest 414 476 40,000  Level Los Angeles Center
Tue 12:44:44 PM 35.0567 -118.7869 336° Northwest 414 476 40,000  Level Los Angeles Center
Tue 12:45:46 PM 35.1633 -118.8447 336° Northwest 418 481 40,000  Level Los Angeles Center
Tue 12:46:48 PM 35.2708 -118.9028 336° Northwest 421 484 40,000  Level Los Angeles Center
Tue 12:47:50 PM 35.3775 -118.9611 336° Northwest 422 486 40,000  Level Los Angeles Center
Tue 12:48:52 PM 35.5042 -119.0314 336° Northwest 419 482 40,000  Level Los Angeles Center
Tue 12:49:54 PM 35.6100 -119.0897 336° Northwest 419 482 40,000  Level Los Angeles Center
Tue 12:50:56 PM 35.7164 -119.1514 335° Northwest 422 486 40,000  Level Los Angeles Center
Tue 12:51:58 PM 35.8231 -119.2108 336° Northwest 423 487 40,000  Level Los Angeles Center
Tue 12:53:01 PM 35.9278 -119.2700 335° Northwest 418 481 40,000  Level Los Angeles Center
Tue 12:53:59 PM 36.0336 -119.3281 336° Northwest 427 491 40,000  Level Oakland Center
Tue 12:55:00 PM 36.1372 -119.3875 335° Northwest 414 476 40,000  Level Oakland Center
Tue 12:56:01 PM 36.2419 -119.4458 336° Northwest 413 475 40,000  Level Oakland Center
Tue 12:57:02 PM 36.3647 -119.5164 335° Northwest 407 468 40,000  Level Oakland Center
Tue 12:58:04 PM 36.4658 -119.5733 336° Northwest 401 461 40,000  Level Oakland Center
Tue 12:59:05 PM 36.5669 -119.6319 335° Northwest 400 460 40,000  Level Oakland Center
Tue 01:00:06 PM 36.6675 -119.6897 335° Northwest 398 458 40,000  Level Oakland Center
Tue 01:01:07 PM 36.7667 -119.7478 335° Northwest 395 455 40,000 -148 Level Oakland Center
Tue 01:02:08 PM 36.8678 -119.8067 335° Northwest 402 463 39,700 -1,317 Descending Oakland Center
Tue 01:03:10 PM 36.9544 -119.8864 324° Northwest 387 445 37,300 -2,488 Descending Oakland Center
Tue 01:04:11 PM 37.0386 -119.9692 322° Northwest 385 443 34,600 -2,656 Descending Oakland Center
Tue 01:05:12 PM 37.1367 -120.0661 322° Northwest 395 455 31,900 -2,459 Descending Oakland Center
Tue 01:06:13 PM 37.2236 -120.1461 324° Northwest 386 444 29,600 -2,262 Descending Oakland Center
Tue 01:07:14 PM 37.3022 -120.2333 319° Northwest 377 434 27,300 -2,098 Descending Oakland Center
Tue 01:08:16 PM 37.3828 -120.3014 326° Northwest 357 411 25,300 -2,000 Descending Oakland Center
Tue 01:09:17 PM 37.4553 -120.3775 320° Northwest 342 394 23,200 -2,139 Descending Oakland Center
Tue 01:09:57 PM 37.5167 -120.4333 324° Northwest 337 388 21,700 -1,740 Descending Northern Cal TRACON
Tue 01:10:57 PM 37.5833 -120.5000 322° Northwest 330 380 20,300 -1,200 Descending Northern Cal TRACON
Tue 01:11:57 PM 37.6500 -120.5833 315° West 326 375 19,300 -857 Descending Northern Cal TRACON
Tue 01:12:21 PM 37.6714 -120.5933 340° North 327 376 19,100 -1,000 Descending Oakland Center
Tue 01:13:03 PM 37.7333 -120.6667 317° Northwest 326 375 18,200 -1,125 Descending Northern Cal TRACON
Tue 01:13:57 PM 37.8000 -120.7167 329° Northwest 323 372 17,300 -991 Descending Northern Cal TRACON
Tue 01:14:58 PM 37.8667 -120.7833 322° Northwest 315 362 16,300 -955 Descending Northern Cal TRACON
Tue 01:15:25 PM 37.8950 -120.8194 315° West 317 365 15,900 -944 Descending Oakland Center
Tue 01:16:27 PM 37.9642 -120.8881 322° Northwest 316 364 14,900 -984 Descending Oakland Center
Tue 01:17:27 PM 38.0325 -120.9594 321° Northwest 318 366 13,900 -984 Descending Oakland Center
Tue 01:18:29 PM 38.0981 -121.0319 319° Northwest 314 361 12,900 -976 Descending Oakland Center
Tue 01:19:30 PM 38.1536 -121.1175 310° West 313 360 11,900 -1,364 Descending Oakland Center
Tue 01:19:57 PM 38.1833 -121.1667 308° West 306 352 10,900 -1,610 Descending Northern Cal TRACON
Tue 01:20:52 PM 38.2333 -121.2333 314° West 298 343 9,700 -1,461 Descending Northern Cal TRACON
Tue 01:21:52 PM 38.2833 -121.3167 307° West 289 333 8,100 -1,600 Descending Northern Cal TRACON
Tue 01:22:52 PM 38.3333 -121.3833 314° West 277 319 6,500 -1,550 Descending Northern Cal TRACON
Tue 01:23:52 PM 38.3833 -121.4667 307° West 272 313 5,000 -1,300 Descending Northern Cal TRACON
Tue 01:24:52 PM 38.4333 -121.5333 314° West 267 307 3,900 -1,050 Descending Northern Cal TRACON
Tue 01:25:52 PM 38.4833 -121.5833 322° Northwest 252 290 2,900 -842 Descending Northern Cal TRACON
Tue 01:26:46 PM 38.5333 -121.6000 345° North 219 252 2,300 -600 Descending Northern Cal TRACON
Tue 01:27:52 PM 38.5833 -121.6000 360° North 151 174 1,700 -550 Descending Northern Cal TRACON
Tue 01:28:46 PM 38.6167 -121.6000 360° North 129 148 1,200 -579 Descending Northern Cal TRACON
Tue 01:29:46 PM 38.6500 -121.6000 360° North 114 131 600 -550 Descending Northern Cal TRACON
Tue 01:30:46 PM 38.6833 -121.6000 360° North 110 127 100 -500 Descending Northern Cal TRACON
Tue 01:32:00 PM 38.6833 -121.5833 46° Northeast  Level FlightAware Approximate
Tue 01:39:00 PM 38.6954 -121.5908 46° Northeast  Level Estimated

Login

Don't have an account? Register now (free) for customized features, flight alerts, and more!